Kansas City, Missouri
Traffic Map
Current Weather Conditions
Kansas City, Missouri
Scattered Clouds
Scattered Clouds
66°
Feels Like: 66°
Wind Chill: 66° Ceiling: Unl
Heat Index: 66° Visibility: 10mi
Dew Point: 57° Wind: 5mph
Humidity: 73% Direction: 70° (ENE)
Pressure: 30.07in Gusts: 0mph
Raw Report DataKMKC 280754Z 07004KT 10SM SCT050 19/14 A3007 RMK AO2 SLP174 T01890139
Traffic Incident Summary
Active as of:
Severity:
Category:
InformationThere was an issue retrieving the traffic information for this location. Please try a different location or try again shortly.
Advertisements
Track Severe Weather on mobile